sensor_id;sensor_type;location;lat;lon;timestamp;P1;durP1;ratioP1;P2;durP2;ratioP2
2480;SDS011;57396;48.742;9.128;2023-05-10T00:01:02;1.93;;;0.93;;
2480;SDS011;57396;48.742;9.128;2023-05-10T00:03:27;1.57;;;1.30;;
2480;SDS011;57396;48.742;9.128;2023-05-10T00:05:53;2.00;;;1.10;;
2480;SDS011;57396;48.742;9.128;2023-05-10T00:08:18;1.07;;;0.80;;
2480;SDS011;57396;48.742;9.128;2023-05-10T00:10:44;2.00;;;1.20;;
2480;SDS011;57396;48.742;9.128;2023-05-10T00:13:09;4.40;;;2.20;;
2480;SDS011;57396;48.742;9.128;2023-05-10T00:15:35;1.30;;;1.10;;
2480;SDS011;57396;48.742;9.128;2023-05-10T00:18:00;2.60;;;1.10;;
2480;SDS011;57396;48.742;9.128;2023-05-10T00:20:26;2.90;;;1.40;;
2480;SDS011;57396;48.742;9.128;2023-05-10T00:22:51;1.53;;;1.10;;
2480;SDS011;57396;48.742;9.128;2023-05-10T00:25:17;2.50;;;0.90;;
2480;SDS011;57396;48.742;9.128;2023-05-10T00:27:42;1.80;;;1.47;;
2480;SDS011;57396;48.742;9.128;2023-05-10T00:30:09;1.10;;;1.00;;
2480;SDS011;57396;48.742;9.128;2023-05-10T00:32:34;2.97;;;0.83;;
2480;SDS011;57396;48.742;9.128;2023-05-10T00:35:00;1.67;;;0.77;;
2480;SDS011;57396;48.742;9.128;2023-05-10T00:37:25;1.57;;;0.60;;
2480;SDS011;57396;48.742;9.128;2023-05-10T00:39:51;2.70;;;0.60;;
2480;SDS011;57396;48.742;9.128;2023-05-10T00:42:16;2.60;;;0.67;;
2480;SDS011;57396;48.742;9.128;2023-05-10T00:44:41;0.87;;;0.50;;
2480;SDS011;57396;48.742;9.128;2023-05-10T00:47:07;1.00;;;0.50;;
2480;SDS011;57396;48.742;9.128;2023-05-10T00:49:33;6.30;;;0.60;;
2480;SDS011;57396;48.742;9.128;2023-05-10T00:51:58;3.00;;;0.60;;
2480;SDS011;57396;48.742;9.128;2023-05-10T00:54:23;0.80;;;0.50;;
2480;SDS011;57396;48.742;9.128;2023-05-10T00:56:49;1.10;;;0.60;;
2480;SDS011;57396;48.742;9.128;2023-05-10T00:59:15;4.30;;;0.50;;
2480;SDS011;57396;48.742;9.128;2023-05-10T01:01:42;2.00;;;0.60;;
2480;SDS011;57396;48.742;9.128;2023-05-10T01:04:09;2.10;;;0.77;;
2480;SDS011;57396;48.742;9.128;2023-05-10T01:06:36;1.30;;;0.77;;
2480;SDS011;57396;48.742;9.128;2023-05-10T01:09:02;1.00;;;0.70;;
2480;SDS011;57396;48.742;9.128;2023-05-10T01:11:27;1.17;;;1.00;;
2480;SDS011;57396;48.742;9.128;2023-05-10T01:13:55;2.37;;;1.13;;
2480;SDS011;57396;48.742;9.128;2023-05-10T01:16:22;1.40;;;0.90;;
2480;SDS011;57396;48.742;9.128;2023-05-10T01:18:47;1.00;;;0.70;;
2480;SDS011;57396;48.742;9.128;2023-05-10T01:29:19;2.13;;;0.50;;
2480;SDS011;57396;48.742;9.128;2023-05-10T01:34:35;0.90;;;0.70;;
2480;SDS011;57396;48.742;9.128;2023-05-10T01:37:09;1.10;;;0.70;;
2480;SDS011;57396;48.742;9.128;2023-05-10T01:39:43;4.73;;;1.33;;
2480;SDS011;57396;48.742;9.128;2023-05-10T01:42:11;1.30;;;0.80;;
2480;SDS011;57396;48.742;9.128;2023-05-10T01:48:02;2.03;;;1.03;;
2480;SDS011;57396;48.742;9.128;2023-05-10T01:50:30;2.47;;;2.17;;
2480;SDS011;57396;48.742;9.128;2023-05-10T01:52:58;3.40;;;1.90;;
2480;SDS011;57396;48.742;9.128;2023-05-10T01:55:25;1.70;;;1.20;;
2480;SDS011;57396;48.742;9.128;2023-05-10T01:57:56;2.37;;;0.73;;
2480;SDS011;57396;48.742;9.128;2023-05-10T02:00:25;4.20;;;0.70;;
2480;SDS011;57396;48.742;9.128;2023-05-10T02:02:52;0.80;;;0.50;;
2480;SDS011;57396;48.742;9.128;2023-05-10T02:05:17;1.30;;;0.80;;
2480;SDS011;57396;48.742;9.128;2023-05-10T02:07:44;1.00;;;0.60;;
2480;SDS011;57396;48.742;9.128;2023-05-10T02:10:10;0.80;;;0.50;;
2480;SDS011;57396;48.742;9.128;2023-05-10T02:12:37;0.80;;;0.50;;
2480;SDS011;57396;48.742;9.128;2023-05-10T02:15:06;1.13;;;0.50;;
2480;SDS011;57396;48.742;9.128;2023-05-10T02:17:33;1.67;;;0.50;;
2480;SDS011;57396;48.742;9.128;2023-05-10T02:20:00;3.83;;;0.70;;
2480;SDS011;57396;48.742;9.128;2023-05-10T02:22:29;2.30;;;0.67;;
2480;SDS011;57396;48.742;9.128;2023-05-10T02:24:55;2.90;;;0.50;;
2480;SDS011;57396;48.742;9.128;2023-05-10T02:27:22;1.33;;;0.60;;
2480;SDS011;57396;48.742;9.128;2023-05-10T02:29:48;0.80;;;0.60;;
2480;SDS011;57396;48.742;9.128;2023-05-10T02:32:15;1.10;;;0.60;;
2480;SDS011;57396;48.742;9.128;2023-05-10T02:34:41;0.80;;;0.50;;
2480;SDS011;57396;48.742;9.128;2023-05-10T02:37:07;0.80;;;0.50;;
2480;SDS011;57396;48.742;9.128;2023-05-10T02:39:33;0.90;;;0.50;;
2480;SDS011;57396;48.742;9.128;2023-05-10T02:41:58;4.37;;;0.50;;
2480;SDS011;57396;48.742;9.128;2023-05-10T02:44:25;0.93;;;0.70;;
2480;SDS011;57396;48.742;9.128;2023-05-10T02:46:52;1.20;;;0.50;;
2480;SDS011;57396;48.742;9.128;2023-05-10T02:49:20;1.00;;;0.60;;
2480;SDS011;57396;48.742;9.128;2023-05-10T02:51:50;1.00;;;0.50;;
2480;SDS011;57396;48.742;9.128;2023-05-10T02:54:18;2.50;;;0.50;;
2480;SDS011;57396;48.742;9.128;2023-05-10T02:56:53;1.10;;;0.60;;
2480;SDS011;57396;48.742;9.128;2023-05-10T02:59:22;0.80;;;0.40;;
2480;SDS011;57396;48.742;9.128;2023-05-10T03:01:48;0.87;;;0.60;;
2480;SDS011;57396;48.742;9.128;2023-05-10T03:04:13;4.10;;;0.57;;
2480;SDS011;57396;48.742;9.128;2023-05-10T03:06:39;3.67;;;0.63;;
2480;SDS011;57396;48.742;9.128;2023-05-10T03:09:04;4.20;;;0.60;;
2480;SDS011;57396;48.742;9.128;2023-05-10T03:16:36;0.90;;;0.60;;
2480;SDS011;57396;48.742;9.128;2023-05-10T03:19:16;4.70;;;0.70;;
2480;SDS011;57396;48.742;9.128;2023-05-10T03:21:44;0.90;;;0.70;;
2480;SDS011;57396;48.742;9.128;2023-05-10T03:24:12;1.30;;;0.70;;
2480;SDS011;57396;48.742;9.128;2023-05-10T03:26:40;1.30;;;0.70;;
2480;SDS011;57396;48.742;9.128;2023-05-10T03:29:08;0.90;;;0.80;;
2480;SDS011;57396;48.742;9.128;2023-05-10T03:31:35;1.73;;;0.90;;
2480;SDS011;57396;48.742;9.128;2023-05-10T03:34:00;2.60;;;0.80;;
2480;SDS011;57396;48.742;9.128;2023-05-10T03:36:26;1.30;;;0.70;;
2480;SDS011;57396;48.742;9.128;2023-05-10T03:38:51;1.10;;;0.70;;
2480;SDS011;57396;48.742;9.128;2023-05-10T03:41:17;2.30;;;0.90;;
2480;SDS011;57396;48.742;9.128;2023-05-10T03:43:42;1.27;;;0.90;;
2480;SDS011;57396;48.742;9.128;2023-05-10T03:46:08;1.00;;;0.80;;
2480;SDS011;57396;48.742;9.128;2023-05-10T03:48:33;2.27;;;1.00;;
2480;SDS011;57396;48.742;9.128;2023-05-10T03:50:59;1.20;;;0.80;;
2480;SDS011;57396;48.742;9.128;2023-05-10T03:53:24;1.17;;;0.90;;
2480;SDS011;57396;48.742;9.128;2023-05-10T03:55:50;1.97;;;1.00;;
2480;SDS011;57396;48.742;9.128;2023-05-10T03:58:15;3.40;;;1.87;;
2480;SDS011;57396;48.742;9.128;2023-05-10T04:00:41;4.20;;;1.30;;
2480;SDS011;57396;48.742;9.128;2023-05-10T04:03:09;1.00;;;0.87;;
2480;SDS011;57396;48.742;9.128;2023-05-10T04:05:35;3.73;;;0.90;;
2480;SDS011;57396;48.742;9.128;2023-05-10T04:08:01;2.40;;;1.83;;
2480;SDS011;57396;48.742;9.128;2023-05-10T04:10:26;2.10;;;1.47;;
2480;SDS011;57396;48.742;9.128;2023-05-10T04:12:52;1.43;;;0.97;;
2480;SDS011;57396;48.742;9.128;2023-05-10T04:15:17;1.97;;;1.30;;
2480;SDS011;57396;48.742;9.128;2023-05-10T04:17:43;2.23;;;1.60;;
2480;SDS011;57396;48.742;9.128;2023-05-10T04:20:08;2.57;;;2.37;;
2480;SDS011;57396;48.742;9.128;2023-05-10T04:22:34;1.80;;;1.57;;
2480;SDS011;57396;48.742;9.128;2023-05-10T04:25:00;2.43;;;1.70;;
2480;SDS011;57396;48.742;9.128;2023-05-10T04:27:25;1.50;;;1.23;;
2480;SDS011;57396;48.742;9.128;2023-05-10T04:29:51;1.53;;;1.43;;
2480;SDS011;57396;48.742;9.128;2023-05-10T04:32:16;2.73;;;1.93;;
2480;SDS011;57396;48.742;9.128;2023-05-10T04:34:42;4.60;;;1.20;;
2480;SDS011;57396;48.742;9.128;2023-05-10T04:37:08;2.00;;;0.97;;
2480;SDS011;57396;48.742;9.128;2023-05-10T04:39:34;2.97;;;1.40;;
2480;SDS011;57396;48.742;9.128;2023-05-10T04:42:00;1.97;;;1.20;;
2480;SDS011;57396;48.742;9.128;2023-05-10T04:44:27;1.00;;;0.90;;
2480;SDS011;57396;48.742;9.128;2023-05-10T04:46:53;2.43;;;1.13;;
2480;SDS011;57396;48.742;9.128;2023-05-10T04:49:18;1.40;;;1.30;;
2480;SDS011;57396;48.742;9.128;2023-05-10T04:51:44;1.47;;;1.00;;
2480;SDS011;57396;48.742;9.128;2023-05-10T04:54:09;1.47;;;1.00;;
2480;SDS011;57396;48.742;9.128;2023-05-10T04:56:35;1.40;;;1.00;;
2480;SDS011;57396;48.742;9.128;2023-05-10T04:59:00;1.37;;;1.00;;
2480;SDS011;57396;48.742;9.128;2023-05-10T05:01:26;1.57;;;1.00;;
2480;SDS011;57396;48.742;9.128;2023-05-10T05:03:51;1.20;;;1.00;;
2480;SDS011;57396;48.742;9.128;2023-05-10T05:06:18;1.30;;;0.90;;
2480;SDS011;57396;48.742;9.128;2023-05-10T05:08:43;3.83;;;1.20;;
2480;SDS011;57396;48.742;9.128;2023-05-10T05:11:09;3.47;;;1.00;;
2480;SDS011;57396;48.742;9.128;2023-05-10T05:13:34;1.30;;;1.00;;
2480;SDS011;57396;48.742;9.128;2023-05-10T05:16:00;1.20;;;1.10;;
2480;SDS011;57396;48.742;9.128;2023-05-10T05:18:27;1.00;;;0.90;;
2480;SDS011;57396;48.742;9.128;2023-05-10T05:20:53;3.30;;;1.40;;
2480;SDS011;57396;48.742;9.128;2023-05-10T05:23:18;1.77;;;1.30;;
2480;SDS011;57396;48.742;9.128;2023-05-10T05:25:45;2.90;;;1.60;;
2480;SDS011;57396;48.742;9.128;2023-05-10T05:28:11;1.50;;;1.40;;
2480;SDS011;57396;48.742;9.128;2023-05-10T05:30:36;2.83;;;1.50;;
2480;SDS011;57396;48.742;9.128;2023-05-10T05:33:02;1.70;;;1.03;;
2480;SDS011;57396;48.742;9.128;2023-05-10T05:35:27;4.50;;;1.30;;
2480;SDS011;57396;48.742;9.128;2023-05-10T05:37:53;3.13;;;1.60;;
2480;SDS011;57396;48.742;9.128;2023-05-10T05:40:18;1.63;;;1.53;;
2480;SDS011;57396;48.742;9.128;2023-05-10T05:42:45;2.63;;;1.40;;
2480;SDS011;57396;48.742;9.128;2023-05-10T05:45:10;2.20;;;1.63;;
2480;SDS011;57396;48.742;9.128;2023-05-10T05:47:38;3.80;;;1.57;;
2480;SDS011;57396;48.742;9.128;2023-05-10T05:50:05;1.13;;;1.03;;
2480;SDS011;57396;48.742;9.128;2023-05-10T05:52:30;5.77;;;1.30;;
2480;SDS011;57396;48.742;9.128;2023-05-10T05:54:56;3.23;;;1.50;;
2480;SDS011;57396;48.742;9.128;2023-05-10T05:57:21;2.07;;;1.30;;
2480;SDS011;57396;48.742;9.128;2023-05-10T05:59:47;2.13;;;1.60;;
2480;SDS011;57396;48.742;9.128;2023-05-10T06:02:12;2.80;;;1.27;;
2480;SDS011;57396;48.742;9.128;2023-05-10T06:04:38;3.30;;;1.57;;
2480;SDS011;57396;48.742;9.128;2023-05-10T06:07:03;1.50;;;1.40;;
2480;SDS011;57396;48.742;9.128;2023-05-10T06:09:29;1.53;;;1.40;;
2480;SDS011;57396;48.742;9.128;2023-05-10T06:11:54;4.70;;;1.60;;
2480;SDS011;57396;48.742;9.128;2023-05-10T06:14:20;2.07;;;1.37;;
2480;SDS011;57396;48.742;9.128;2023-05-10T06:16:46;1.60;;;1.50;;
2480;SDS011;57396;48.742;9.128;2023-05-10T06:19:11;1.50;;;1.33;;
2480;SDS011;57396;48.742;9.128;2023-05-10T06:21:36;3.73;;;1.40;;
2480;SDS011;57396;48.742;9.128;2023-05-10T06:24:02;4.47;;;1.60;;
2480;SDS011;57396;48.742;9.128;2023-05-10T06:26:27;3.07;;;1.30;;
2480;SDS011;57396;48.742;9.128;2023-05-10T06:28:53;3.00;;;1.50;;
2480;SDS011;57396;48.742;9.128;2023-05-10T06:31:18;1.70;;;1.40;;
2480;SDS011;57396;48.742;9.128;2023-05-10T06:33:44;2.73;;;1.30;;
2480;SDS011;57396;48.742;9.128;2023-05-10T06:36:09;1.47;;;1.37;;
2480;SDS011;57396;48.742;9.128;2023-05-10T06:38:35;1.60;;;1.50;;
2480;SDS011;57396;48.742;9.128;2023-05-10T06:41:00;1.70;;;1.57;;
2480;SDS011;57396;48.742;9.128;2023-05-10T06:43:26;2.13;;;1.60;;
2480;SDS011;57396;48.742;9.128;2023-05-10T06:45:53;2.37;;;1.60;;
2480;SDS011;57396;48.742;9.128;2023-05-10T06:48:19;1.83;;;1.40;;
2480;SDS011;57396;48.742;9.128;2023-05-10T06:50:44;2.40;;;1.80;;
2480;SDS011;57396;48.742;9.128;2023-05-10T06:53:10;2.77;;;1.67;;
2480;SDS011;57396;48.742;9.128;2023-05-10T06:55:36;3.67;;;2.50;;
2480;SDS011;57396;48.742;9.128;2023-05-10T06:58:02;1.97;;;1.43;;
2480;SDS011;57396;48.742;9.128;2023-05-10T07:00:27;3.00;;;2.70;;
2480;SDS011;57396;48.742;9.128;2023-05-10T07:02:53;2.80;;;1.80;;
2480;SDS011;57396;48.742;9.128;2023-05-10T07:05:18;2.70;;;2.30;;
2480;SDS011;57396;48.742;9.128;2023-05-10T07:07:44;2.97;;;1.87;;
2480;SDS011;57396;48.742;9.128;2023-05-10T07:10:10;2.23;;;1.20;;
2480;SDS011;57396;48.742;9.128;2023-05-10T07:12:35;1.67;;;1.57;;
2480;SDS011;57396;48.742;9.128;2023-05-10T07:15:01;1.17;;;1.07;;
2480;SDS011;57396;48.742;9.128;2023-05-10T07:17:26;1.50;;;1.40;;
2480;SDS011;57396;48.742;9.128;2023-05-10T07:19:52;3.40;;;1.30;;
2480;SDS011;57396;48.742;9.128;2023-05-10T07:22:17;1.67;;;1.30;;
2480;SDS011;57396;48.742;9.128;2023-05-10T07:24:43;1.43;;;1.30;;
2480;SDS011;57396;48.742;9.128;2023-05-10T07:27:08;1.50;;;1.33;;
2480;SDS011;57396;48.742;9.128;2023-05-10T07:29:34;2.53;;;2.13;;
2480;SDS011;57396;48.742;9.128;2023-05-10T07:32:00;1.67;;;1.50;;
2480;SDS011;57396;48.742;9.128;2023-05-10T07:34:26;1.87;;;1.33;;
2480;SDS011;57396;48.742;9.128;2023-05-10T07:36:51;2.13;;;1.13;;
2480;SDS011;57396;48.742;9.128;2023-05-10T07:39:17;1.43;;;1.33;;
2480;SDS011;57396;48.742;9.128;2023-05-10T07:41:43;2.60;;;1.37;;
2480;SDS011;57396;48.742;9.128;2023-05-10T07:44:08;2.17;;;1.10;;
2480;SDS011;57396;48.742;9.128;2023-05-10T07:46:34;5.63;;;1.13;;
2480;SDS011;57396;48.742;9.128;2023-05-10T07:48:59;3.83;;;1.10;;
2480;SDS011;57396;48.742;9.128;2023-05-10T07:51:24;2.23;;;1.47;;
2480;SDS011;57396;48.742;9.128;2023-05-10T07:53:50;2.43;;;1.00;;
2480;SDS011;57396;48.742;9.128;2023-05-10T07:56:20;4.40;;;1.13;;
2480;SDS011;57396;48.742;9.128;2023-05-10T07:58:50;1.50;;;1.00;;
2480;SDS011;57396;48.742;9.128;2023-05-10T08:01:16;1.67;;;0.90;;
2480;SDS011;57396;48.742;9.128;2023-05-10T08:03:41;1.10;;;0.90;;
2480;SDS011;57396;48.742;9.128;2023-05-10T08:06:07;5.70;;;3.10;;
2480;SDS011;57396;48.742;9.128;2023-05-10T08:08:32;3.70;;;2.80;;
2480;SDS011;57396;48.742;9.128;2023-05-10T08:10:58;1.40;;;1.13;;
2480;SDS011;57396;48.742;9.128;2023-05-10T08:13:23;3.23;;;1.30;;
2480;SDS011;57396;48.742;9.128;2023-05-10T08:15:48;1.77;;;1.30;;
2480;SDS011;57396;48.742;9.128;2023-05-10T08:18:14;4.00;;;1.80;;
2480;SDS011;57396;48.742;9.128;2023-05-10T08:20:39;1.50;;;1.40;;
2480;SDS011;57396;48.742;9.128;2023-05-10T08:23:05;4.10;;;2.70;;
2480;SDS011;57396;48.742;9.128;2023-05-10T08:25:31;2.70;;;0.90;;
2480;SDS011;57396;48.742;9.128;2023-05-10T08:27:56;1.20;;;0.73;;
2480;SDS011;57396;48.742;9.128;2023-05-10T08:30:22;1.27;;;0.90;;
2480;SDS011;57396;48.742;9.128;2023-05-10T08:32:47;1.00;;;0.80;;
2480;SDS011;57396;48.742;9.128;2023-05-10T08:35:13;4.30;;;1.07;;
2480;SDS011;57396;48.742;9.128;2023-05-10T08:37:38;1.13;;;0.80;;
2480;SDS011;57396;48.742;9.128;2023-05-10T08:40:04;2.33;;;0.90;;
2480;SDS011;57396;48.742;9.128;2023-05-10T08:42:30;1.67;;;0.90;;
2480;SDS011;57396;48.742;9.128;2023-05-10T08:44:56;1.80;;;0.83;;
2480;SDS011;57396;48.742;9.128;2023-05-10T08:47:22;2.23;;;0.80;;
2480;SDS011;57396;48.742;9.128;2023-05-10T08:49:47;3.20;;;0.83;;
2480;SDS011;57396;48.742;9.128;2023-05-10T08:52:16;3.33;;;0.93;;
2480;SDS011;57396;48.742;9.128;2023-05-10T08:54:42;1.00;;;0.70;;
2480;SDS011;57396;48.742;9.128;2023-05-10T08:57:08;1.20;;;0.97;;
2480;SDS011;57396;48.742;9.128;2023-05-10T08:59:35;0.90;;;0.70;;
2480;SDS011;57396;48.742;9.128;2023-05-10T09:02:03;3.77;;;0.90;;
2480;SDS011;57396;48.742;9.128;2023-05-10T09:04:29;4.70;;;2.33;;
2480;SDS011;57396;48.742;9.128;2023-05-10T09:06:56;2.30;;;1.23;;
2480;SDS011;57396;48.742;9.128;2023-05-10T09:09:21;1.70;;;1.60;;
2480;SDS011;57396;48.742;9.128;2023-05-10T09:11:48;2.33;;;1.27;;
2480;SDS011;57396;48.742;9.128;2023-05-10T09:14:14;1.43;;;1.27;;
2480;SDS011;57396;48.742;9.128;2023-05-10T09:16:40;2.13;;;1.00;;
2480;SDS011;57396;48.742;9.128;2023-05-10T09:19:06;1.20;;;0.90;;
2480;SDS011;57396;48.742;9.128;2023-05-10T09:21:34;1.00;;;0.87;;
2480;SDS011;57396;48.742;9.128;2023-05-10T09:24:05;1.20;;;1.10;;
2480;SDS011;57396;48.742;9.128;2023-05-10T09:26:31;1.67;;;0.90;;
2480;SDS011;57396;48.742;9.128;2023-05-10T09:28:57;1.17;;;0.67;;
2480;SDS011;57396;48.742;9.128;2023-05-10T09:31:24;1.30;;;0.80;;
2480;SDS011;57396;48.742;9.128;2023-05-10T09:33:52;2.57;;;0.63;;
2480;SDS011;57396;48.742;9.128;2023-05-10T09:36:17;2.90;;;0.80;;
2480;SDS011;57396;48.742;9.128;2023-05-10T09:38:51;1.10;;;0.70;;
2480;SDS011;57396;48.742;9.128;2023-05-10T09:41:23;1.87;;;0.80;;
2480;SDS011;57396;48.742;9.128;2023-05-10T09:43:50;9.10;;;0.90;;
2480;SDS011;57396;48.742;9.128;2023-05-10T09:46:22;4.20;;;0.90;;
2480;SDS011;57396;48.742;9.128;2023-05-10T09:48:51;10.83;;;0.80;;
2480;SDS011;57396;48.742;9.128;2023-05-10T09:51:20;1.83;;;0.70;;
2480;SDS011;57396;48.742;9.128;2023-05-10T09:53:57;2.03;;;0.70;;
2480;SDS011;57396;48.742;9.128;2023-05-10T09:56:35;0.90;;;0.60;;
2480;SDS011;57396;48.742;9.128;2023-05-10T09:59:04;4.33;;;1.80;;
2480;SDS011;57396;48.742;9.128;2023-05-10T10:01:30;2.23;;;1.80;;
2480;SDS011;57396;48.742;9.128;2023-05-10T10:03:56;4.10;;;0.90;;
2480;SDS011;57396;48.742;9.128;2023-05-10T10:06:22;1.90;;;0.80;;
2480;SDS011;57396;48.742;9.128;2023-05-10T10:08:48;1.00;;;0.80;;
2480;SDS011;57396;48.742;9.128;2023-05-10T10:11:14;0.90;;;0.67;;
2480;SDS011;57396;48.742;9.128;2023-05-10T10:13:40;2.10;;;0.70;;
2480;SDS011;57396;48.742;9.128;2023-05-10T10:16:05;6.20;;;0.70;;
2480;SDS011;57396;48.742;9.128;2023-05-10T10:18:31;1.33;;;0.90;;
2480;SDS011;57396;48.742;9.128;2023-05-10T10:20:57;2.43;;;0.83;;
2480;SDS011;57396;48.742;9.128;2023-05-10T10:23:23;2.53;;;0.60;;
2480;SDS011;57396;48.742;9.128;2023-05-10T10:25:48;0.90;;;0.70;;
2480;SDS011;57396;48.742;9.128;2023-05-10T10:31:13;0.80;;;0.50;;
2480;SDS011;57396;48.742;9.128;2023-05-10T10:34:17;1.20;;;0.67;;
2480;SDS011;57396;48.742;9.128;2023-05-10T10:36:45;0.90;;;0.70;;
2480;SDS011;57396;48.742;9.128;2023-05-10T10:39:12;0.90;;;0.60;;
2480;SDS011;57396;48.742;9.128;2023-05-10T10:41:54;3.03;;;0.70;;
2480;SDS011;57396;48.742;9.128;2023-05-10T10:47:06;0.90;;;0.60;;
2480;SDS011;57396;48.742;9.128;2023-05-10T10:52:24;2.70;;;1.00;;
2480;SDS011;57396;48.742;9.128;2023-05-10T10:55:05;3.30;;;0.63;;
2480;SDS011;57396;48.742;9.128;2023-05-10T11:00:17;1.00;;;0.60;;
2480;SDS011;57396;48.742;9.128;2023-05-10T11:02:44;3.53;;;0.80;;
2480;SDS011;57396;48.742;9.128;2023-05-10T11:07:58;2.53;;;1.00;;
2480;SDS011;57396;48.742;9.128;2023-05-10T11:10:24;1.10;;;0.80;;
2480;SDS011;57396;48.742;9.128;2023-05-10T11:13:00;1.00;;;0.70;;
2480;SDS011;57396;48.742;9.128;2023-05-10T11:15:29;2.23;;;0.67;;
2480;SDS011;57396;48.742;9.128;2023-05-10T11:17:56;0.90;;;0.60;;
2480;SDS011;57396;48.742;9.128;2023-05-10T11:20:21;2.03;;;1.43;;
2480;SDS011;57396;48.742;9.128;2023-05-10T11:22:52;2.10;;;1.63;;
2480;SDS011;57396;48.742;9.128;2023-05-10T11:25:19;5.20;;;1.90;;
2480;SDS011;57396;48.742;9.128;2023-05-10T11:27:46;1.90;;;1.20;;
2480;SDS011;57396;48.742;9.128;2023-05-10T11:30:12;4.40;;;2.00;;
2480;SDS011;57396;48.742;9.128;2023-05-10T11:32:39;1.97;;;1.20;;
2480;SDS011;57396;48.742;9.128;2023-05-10T11:35:08;1.27;;;1.17;;
2480;SDS011;57396;48.742;9.128;2023-05-10T11:37:34;1.10;;;0.90;;
2480;SDS011;57396;48.742;9.128;2023-05-10T11:40:00;4.70;;;1.47;;
2480;SDS011;57396;48.742;9.128;2023-05-10T11:42:27;1.57;;;0.80;;
2480;SDS011;57396;48.742;9.128;2023-05-10T11:44:53;1.40;;;1.00;;
2480;SDS011;57396;48.742;9.128;2023-05-10T11:47:18;1.50;;;0.80;;
2480;SDS011;57396;48.742;9.128;2023-05-10T11:49:44;5.40;;;1.00;;
2480;SDS011;57396;48.742;9.128;2023-05-10T11:52:10;1.77;;;0.90;;
2480;SDS011;57396;48.742;9.128;2023-05-10T11:54:45;2.60;;;0.80;;
2480;SDS011;57396;48.742;9.128;2023-05-10T11:57:17;3.70;;;1.03;;
2480;SDS011;57396;48.742;9.128;2023-05-10T11:59:43;3.40;;;0.80;;
2480;SDS011;57396;48.742;9.128;2023-05-10T12:02:09;2.27;;;0.70;;
2480;SDS011;57396;48.742;9.128;2023-05-10T12:04:35;2.63;;;1.10;;
2480;SDS011;57396;48.742;9.128;2023-05-10T12:07:00;2.40;;;1.13;;
2480;SDS011;57396;48.742;9.128;2023-05-10T12:09:26;3.03;;;1.60;;
2480;SDS011;57396;48.742;9.128;2023-05-10T12:11:54;4.00;;;2.20;;
2480;SDS011;57396;48.742;9.128;2023-05-10T12:14:21;2.30;;;1.90;;
2480;SDS011;57396;48.742;9.128;2023-05-10T12:16:47;1.30;;;1.10;;
2480;SDS011;57396;48.742;9.128;2023-05-10T12:19:12;2.37;;;1.10;;
2480;SDS011;57396;48.742;9.128;2023-05-10T12:21:43;1.97;;;1.40;;
2480;SDS011;57396;48.742;9.128;2023-05-10T12:24:09;2.23;;;1.03;;
2480;SDS011;57396;48.742;9.128;2023-05-10T12:26:35;2.57;;;1.33;;
2480;SDS011;57396;48.742;9.128;2023-05-10T12:29:17;2.00;;;1.13;;
2480;SDS011;57396;48.742;9.128;2023-05-10T12:34:22;1.97;;;0.87;;
2480;SDS011;57396;48.742;9.128;2023-05-10T12:36:52;2.07;;;0.87;;
2480;SDS011;57396;48.742;9.128;2023-05-10T12:39:18;1.30;;;0.77;;
2480;SDS011;57396;48.742;9.128;2023-05-10T12:41:43;2.63;;;0.87;;
2480;SDS011;57396;48.742;9.128;2023-05-10T12:44:09;2.27;;;1.00;;
2480;SDS011;57396;48.742;9.128;2023-05-10T12:46:34;2.30;;;0.90;;
2480;SDS011;57396;48.742;9.128;2023-05-10T12:48:59;3.83;;;1.20;;
2480;SDS011;57396;48.742;9.128;2023-05-10T12:51:25;8.30;;;1.07;;
2480;SDS011;57396;48.742;9.128;2023-05-10T12:53:50;1.77;;;1.00;;
2480;SDS011;57396;48.742;9.128;2023-05-10T12:56:16;2.80;;;1.43;;
2480;SDS011;57396;48.742;9.128;2023-05-10T12:58:41;8.40;;;2.43;;
2480;SDS011;57396;48.742;9.128;2023-05-10T13:01:07;1.67;;;1.20;;
2480;SDS011;57396;48.742;9.128;2023-05-10T13:03:33;3.07;;;1.00;;
2480;SDS011;57396;48.742;9.128;2023-05-10T13:05:58;3.23;;;0.90;;
2480;SDS011;57396;48.742;9.128;2023-05-10T13:08:24;4.33;;;1.27;;
2480;SDS011;57396;48.742;9.128;2023-05-10T13:10:50;6.60;;;1.30;;
2480;SDS011;57396;48.742;9.128;2023-05-10T13:13:15;1.83;;;1.30;;
2480;SDS011;57396;48.742;9.128;2023-05-10T13:15:41;4.37;;;1.10;;
2480;SDS011;57396;48.742;9.128;2023-05-10T13:18:06;4.83;;;1.10;;
2480;SDS011;57396;48.742;9.128;2023-05-10T13:20:31;1.60;;;1.13;;
2480;SDS011;57396;48.742;9.128;2023-05-10T13:22:57;2.90;;;0.90;;
2480;SDS011;57396;48.742;9.128;2023-05-10T13:25:22;3.87;;;0.90;;
2480;SDS011;57396;48.742;9.128;2023-05-10T13:27:48;3.50;;;1.30;;
2480;SDS011;57396;48.742;9.128;2023-05-10T13:30:14;2.37;;;1.40;;
2480;SDS011;57396;48.742;9.128;2023-05-10T13:32:39;4.10;;;1.40;;
2480;SDS011;57396;48.742;9.128;2023-05-10T13:35:05;2.07;;;0.90;;
2480;SDS011;57396;48.742;9.128;2023-05-10T13:37:31;2.40;;;1.33;;
2480;SDS011;57396;48.742;9.128;2023-05-10T13:39:57;8.00;;;2.67;;
2480;SDS011;57396;48.742;9.128;2023-05-10T13:42:22;2.67;;;2.23;;
2480;SDS011;57396;48.742;9.128;2023-05-10T13:44:48;2.23;;;1.37;;
2480;SDS011;57396;48.742;9.128;2023-05-10T13:47:14;9.03;;;2.03;;
2480;SDS011;57396;48.742;9.128;2023-05-10T13:49:40;2.70;;;1.00;;
2480;SDS011;57396;48.742;9.128;2023-05-10T13:52:05;2.03;;;1.00;;
2480;SDS011;57396;48.742;9.128;2023-05-10T13:54:32;2.57;;;1.27;;
2480;SDS011;57396;48.742;9.128;2023-05-10T13:56:58;2.07;;;1.20;;
2480;SDS011;57396;48.742;9.128;2023-05-10T13:59:25;1.40;;;0.80;;
2480;SDS011;57396;48.742;9.128;2023-05-10T14:01:50;1.83;;;1.03;;
2480;SDS011;57396;48.742;9.128;2023-05-10T14:04:16;3.30;;;0.90;;
2480;SDS011;57396;48.742;9.128;2023-05-10T14:06:41;6.63;;;1.00;;
2480;SDS011;57396;48.742;9.128;2023-05-10T14:09:07;3.90;;;1.07;;
2480;SDS011;57396;48.742;9.128;2023-05-10T14:11:32;1.97;;;1.00;;
2480;SDS011;57396;48.742;9.128;2023-05-10T14:13:58;9.80;;;1.90;;
2480;SDS011;57396;48.742;9.128;2023-05-10T14:16:23;2.00;;;0.80;;
2480;SDS011;57396;48.742;9.128;2023-05-10T14:18:48;3.23;;;0.90;;
2480;SDS011;57396;48.742;9.128;2023-05-10T14:21:14;2.27;;;1.07;;
2480;SDS011;57396;48.742;9.128;2023-05-10T14:23:40;4.03;;;0.90;;
2480;SDS011;57396;48.742;9.128;2023-05-10T14:26:05;2.63;;;1.77;;
2480;SDS011;57396;48.742;9.128;2023-05-10T14:28:31;8.40;;;6.40;;
2480;SDS011;57396;48.742;9.128;2023-05-10T14:30:57;34.60;;;29.20;;
2480;SDS011;57396;48.742;9.128;2023-05-10T14:33:23;16.37;;;12.23;;
2480;SDS011;57396;48.742;9.128;2023-05-10T14:35:48;12.53;;;9.40;;
2480;SDS011;57396;48.742;9.128;2023-05-10T14:38:14;23.70;;;17.20;;
2480;SDS011;57396;48.742;9.128;2023-05-10T14:40:39;15.43;;;8.40;;
2480;SDS011;57396;48.742;9.128;2023-05-10T14:43:05;6.20;;;1.90;;
2480;SDS011;57396;48.742;9.128;2023-05-10T14:45:30;4.40;;;1.10;;
2480;SDS011;57396;48.742;9.128;2023-05-10T14:47:56;2.23;;;1.33;;
2480;SDS011;57396;48.742;9.128;2023-05-10T14:50:22;2.10;;;0.97;;
2480;SDS011;57396;48.742;9.128;2023-05-10T14:52:48;2.50;;;0.87;;
2480;SDS011;57396;48.742;9.128;2023-05-10T14:55:13;4.43;;;1.20;;
2480;SDS011;57396;48.742;9.128;2023-05-10T14:57:39;1.87;;;0.93;;
2480;SDS011;57396;48.742;9.128;2023-05-10T15:00:05;4.70;;;0.80;;
2480;SDS011;57396;48.742;9.128;2023-05-10T15:02:31;6.40;;;1.60;;
2480;SDS011;57396;48.742;9.128;2023-05-10T15:04:56;1.20;;;0.83;;
2480;SDS011;57396;48.742;9.128;2023-05-10T15:07:22;1.40;;;0.90;;
2480;SDS011;57396;48.742;9.128;2023-05-10T15:09:48;1.00;;;0.90;;
2480;SDS011;57396;48.742;9.128;2023-05-10T15:12:14;4.00;;;1.20;;
2480;SDS011;57396;48.742;9.128;2023-05-10T15:14:40;3.37;;;0.90;;
2480;SDS011;57396;48.742;9.128;2023-05-10T15:17:05;3.23;;;1.30;;
2480;SDS011;57396;48.742;9.128;2023-05-10T15:19:31;1.77;;;0.90;;
2480;SDS011;57396;48.742;9.128;2023-05-10T15:21:58;4.20;;;1.17;;
2480;SDS011;57396;48.742;9.128;2023-05-10T15:24:24;4.60;;;0.87;;
2480;SDS011;57396;48.742;9.128;2023-05-10T15:26:49;1.93;;;1.10;;
2480;SDS011;57396;48.742;9.128;2023-05-10T15:29:15;7.47;;;1.13;;
2480;SDS011;57396;48.742;9.128;2023-05-10T15:31:47;1.23;;;0.70;;